Detall de PIREP

Printer-friendly versionPDF version

[2013/12/10 09:37:00]
Flight IATA:CT3227
Pilot Number:042
Company ICAO:CAT
Aircraft Type:B738/F
PAX:125
Departing Airport: EGLL
Destination Airport: LEPA
Alternate Airport:LEBL
Online: VATSIM
Route:EGLL MID UL151 SITET UN859 BCN UZ167 LORES LEPA
Flight Level:F340
No Slew and time accel
No pause
Crash detect
Detect pilot in Cockpit between each 30 and 45 minutes
09:37 Zero fuel Weight: 115601 Lbs, Fuel Weight: 46040 Lbs
09:37 VATSIM:EGLL 100920Z VRB03KT 4500 BR BKN023 03/03 Q1031
09:37 VATSIM:LEPA 100900Z 02001KT 9999 4000 BCFG FEW025 09/08 Q1033 NOSIG
09:37 VOICE CATALONIAN
09:45 Parking Brakes off
09:58 Take-off
09:58 Take off Weight: 160358 Lbs
09:58 Wind: 024º @ 001 Knots Heading: 088º
09:58 POS N51º 28´ 39´´ W000º 27´ 23´´
09:58 Gear Up: 179 Knots
09:58 Flaps:3 at 179 Knots
09:59 Flaps:2 at 187 Knots
09:59 Flaps:1 at 186 Knots
10:00 Flaps:0 at 183 Knots
10:13 Wind:060º@005 Knots Heading: 156º Ground Speed: 375 Knots Altitude 17316 ft
10:24 TOC
10:24 Fuel Weight: 40015 Lb
10:28 Wind:124º@008 Knots Heading: 163º Ground Speed: 436 Knots Altitude 34570 ft
10:43 Wind:107º@010 Knots Heading: 179º Ground Speed: 440 Knots Altitude 34563 ft
10:58 Wind:099º@011 Knots Heading: 170º Ground Speed: 445 Knots Altitude 34537 ft
11:13 Wind:112º@015 Knots Heading: 174º Ground Speed: 439 Knots Altitude 34557 ft
11:28 Wind:333º@005 Knots Heading: 176º Ground Speed: 452 Knots Altitude 35583 ft
11:33 TOD
11:33 Fuel Weight: 33224 Lb
11:43 Wind:337º@010 Knots Heading: 201º Ground Speed: 355 Knots Altitude 16889 ft
11:51 Flaps:1 at 235 Knots
11:52 Flaps:2 at 192 Knots
11:53 Flaps:3 at 179 Knots
11:55 Gear Down: 179 Knots
11:55 Flaps:4 at 179 Knots
11:55 Flaps:5 at 181 Knots
11:55 Flaps:7 at 182 Knots
11:55 Flaps:8 at 187 Knots
11:56Flaps:7 at 143 Knots
11:57 Flaps:8 at 148 Knots
11:58 Wind:060º@002 Knots Heading: 056º Ground Speed: 150 Knots Altitude 875 ft
11:58 TouchDown:Rate -325 ft/min Speed: 123 Knots
11:58 VATSIM:LEPA 101130Z 00000KT 9999 FEW025 15/07 Q1033 NOSIG
11:58 Land
11:58 Wind:058º@000 Knots
11:58 Heading: 058º
11:58 Flight Duration: 02:00
11:58 Landing Weight: 147636 Lbs
11:58 POS N39º 33´ 06´´ E002º 43´ 13´´
12:00 Parking brakes on
12:00 Block to Block Duration: 02:15
12:00 Final Fuel: 31900 Lbls
12:00 Spent Fuel: 14140 Lbls
12:00 Flight Length: 669 NM
12:00 TOD Land Length: 126 NM

Exportar CSV

Powered by Drupal - Modified by Danger4k